Discovery — WDI4277 — position and weather

sailwx.info

Track history (hours):
 
Tides and Currents Weather Stations Pressure Air Temp Water Temp Dewpoint Dewpoint Depression Visibility Wind Speed Wind Dir Waves Ship Positions

Discovery

Owner: Central Boat Rentals, Inc, Morgan City, LA. More information available from US FCC via Universal Licensing System and Coast Guard Vessel Documentation Center.

Last reported at 2017-Oct-12 13:04 UTC. Time now 2017-Oct-22 23:08 UTC.
Position N 30°04' W 093°38'.
Warning: this ship's position is 10 days out of date.

Length 17 m; draft 2 m.

Type: Tug. MMSI: 367697020.

Date/timePositionNaut miles runAvg speedWind from/ knotsBaromVisibWave heightAir tempDewpointWater temp
2017-Oct-12 13:04N 30°04' W 093°38'1 5.4
2017-Oct-12 12:56N 30°04' W 093°37'4 6.7
2017-Oct-12 12:18N 30°04' W 093°32'2 6.8
2017-Oct-12 12:00N 30°04' W 093°29'3 6.9
2017-Oct-12 11:30N 30°04' W 093°26'3 6.9
2017-Oct-12 11:00N 30°04' W 093°22'3 6.1
2017-Oct-12 10:30N 30°06' W 093°19'1 2.8
2017-Oct-12 10:01N 30°05' W 093°18'1 2.4
2017-Oct-12 09:30N 30°05' W 093°16'0 0.0
2017-Oct-12 09:00N 30°05' W 093°16'1 2.1
2017-Oct-12 08:30N 30°04' W 093°16'3 5.9
2017-Oct-12 08:00N 30°01' W 093°14'3 6.3
2017-Oct-12 07:30N 29°59' W 093°12'3 6.6
2017-Oct-12 07:00N 29°56' W 093°09'42 5.8
2017-Oct-11 23:52N 29°51' W 092°22'2 5.9
2017-Oct-11 23:30N 29°50' W 092°19'3 5.8
2017-Oct-11 23:00N 29°49' W 092°17'3 6.0
2017-Oct-11 22:30N 29°48' W 092°14'2 4.4
2017-Oct-11 22:00N 29°47' W 092°11'3 5.5
2017-Oct-11 21:30N 29°47' W 092°08'3 6.5
2017-Oct-11 21:00N 29°48' W 092°05'1 0.0
2017-Oct-10 15:55N 29°49' W 092°04'2 5.4
2017-Oct-10 15:30N 29°48' W 092°06'3 5.3
2017-Oct-10 15:00N 29°47' W 092°09'4 3.8
2017-Oct-10 14:00N 29°47' W 092°13'3 5.0
2017-Oct-10 13:30N 29°48' W 092°16'3 4.5
2017-Oct-10 12:56N 29°50' W 092°18'40 4.9
2017-Oct-10 04:52N 29°56' W 093°03'2 5.1
2017-Oct-10 04:29N 29°56' W 093°06'2 5.0
2017-Oct-10 04:00N 29°56' W 093°09'2 4.8
2017-Oct-10 03:30N 29°57' W 093°11'3 5.1
2017-Oct-10 03:00N 29°59' W 093°13'2 4.8
2017-Oct-10 02:30N 30°01' W 093°14'2 3.0
2017-Oct-10 02:00N 30°02' W 093°16'2 4.9
2017-Oct-10 01:30N 30°05' W 093°17'2 3.4
2017-Oct-10 01:00N 30°06' W 093°18'0 0.3
2017-Oct-10 00:30N 30°06' W 093°18'0 0.0
2017-Oct-10 00:00N 30°06' W 093°18'0 0.0
2017-Oct-09 23:30N 30°06' W 093°18'0 0.0
2017-Oct-09 23:00N 30°06' W 093°18'0 0.0
2017-Oct-09 22:30N 30°06' W 093°18'0 0.0
2017-Oct-09 22:00N 30°06' W 093°18'0 0.0
2017-Oct-09 21:30N 30°06' W 093°18'0 0.0
2017-Oct-09 21:00N 30°06' W 093°18'0 0.0
2017-Oct-09 20:30N 30°06' W 093°18'0 0.0
2017-Oct-09 20:00N 30°06' W 093°18'0 0.0
2017-Oct-09 19:30N 30°06' W 093°18'0 0.0
2017-Oct-09 19:00N 30°06' W 093°18'0 0.0
2017-Oct-09 18:30N 30°06' W 093°18'0 0.0
2017-Oct-09 18:00N 30°06' W 093°18'0 0.0
2017-Oct-09 17:30N 30°06' W 093°18'0 0.0
2017-Oct-09 17:00N 30°06' W 093°18'0 0.0
2017-Oct-09 16:30N 30°06' W 093°18'0 0.0
2017-Oct-09 16:00N 30°06' W 093°18'0 0.0
2017-Oct-09 15:30N 30°06' W 093°18'0 0.0
2017-Oct-09 15:00N 30°06' W 093°18'0 0.0
2017-Oct-09 14:30N 30°06' W 093°18'0 0.0
2017-Oct-09 14:00N 30°06' W 093°18'1 1.5
2017-Oct-09 13:30N 30°06' W 093°19'3 5.5
2017-Oct-09 13:00N 30°04' W 093°21'3 5.4
2017-Oct-09 12:30N 30°04' W 093°24'3 5.5
2017-Oct-09 12:00N 30°04' W 093°27'2 4.9
2017-Oct-09 11:30N 30°04' W 093°30'  
2017-Oct-07 00:24N 30°04' W 093°32'2 4.7
2017-Oct-07 00:00N 30°04' W 093°30'2 4.6
2017-Oct-06 23:30N 30°04' W 093°27'2 4.8
2017-Oct-06 23:00N 30°04' W 093°24'2 4.8
2017-Oct-06 22:30N 30°04' W 093°21'2 4.1
2017-Oct-06 22:00N 30°05' W 093°20'2 4.2
2017-Oct-06 21:30N 30°03' W 093°20'3 5.2
2017-Oct-06 21:00N 30°00' W 093°20'3 5.2
2017-Oct-06 20:30N 29°58' W 093°20'3 5.3
2017-Oct-06 20:00N 29°55' W 093°20'3 5.5
2017-Oct-06 19:28N 29°52' W 093°21'1 0.1
2017-Oct-06 13:21N 29°53' W 093°21'2 5.5
2017-Oct-06 13:00N 29°55' W 093°20'3 5.4
2017-Oct-06 12:24N 29°58' W 093°20'3 5.6
2017-Oct-06 11:56N 30°01' W 093°20'2 5.5
2017-Oct-06 11:30N 30°03' W 093°20'2 4.2
2017-Oct-06 11:00N 30°05' W 093°20'2 4.8
2017-Oct-06 10:30N 30°04' W 093°22'0 0.1
2017-Oct-06 09:51N 30°04' W 093°22'1 3.7
2017-Oct-06 09:30N 30°04' W 093°21'1 2.6
2017-Oct-06 09:00N 30°05' W 093°20'2 2.5
2017-Oct-06 08:08N 30°05' W 093°17'0 1.8
2017-Oct-06 08:00N 30°05' W 093°17'1 2.4
2017-Oct-06 07:30N 30°04' W 093°16'3 3.4
2017-Oct-06 06:42N 30°02' W 093°14'3 4.4
2017-Oct-06 06:08N 29°59' W 093°13'1 4.9
2017-Oct-06 06:00N 29°59' W 093°12'2 4.8
2017-Oct-06 05:30N 29°57' W 093°10'46 4.4
2017-Oct-05 18:58N 29°50' W 092°18'3 3.8
2017-Oct-05 18:10N 29°48' W 092°15'1 4.8
2017-Oct-05 18:00N 29°48' W 092°15'2 4.2
2017-Oct-05 17:30N 29°47' W 092°12'0 0.3
2017-Oct-05 17:00N 29°47' W 092°12'7 4.5
2017-Oct-05 15:30N 29°48' W 092°05'69 4.3
2017-Oct-04 23:28N 29°32' W 090°47'3 6.2
2017-Oct-04 22:54N 29°34' W 090°44'1 2.3
2017-Oct-04 22:30N 29°34' W 090°43'3 5.0
2017-Oct-04 22:00N 29°37' W 090°42'2 5.0
2017-Oct-04 21:30N 29°36' W 090°40'3 5.1
2017-Oct-04 21:00N 29°35' W 090°37'2 4.6
2017-Oct-04 20:30N 29°34' W 090°34'2 4.8
2017-Oct-04 20:00N 29°34' W 090°32'  
Track history (hours):
 
Tides and Currents Weather Stations Pressure Air Temp Water Temp Dewpoint Dewpoint Depression Visibility Wind Speed Wind Dir Waves Ship Positions

Discovery

Owner: Central Boat Rentals, Inc, Morgan City, LA. More information available from US FCC via Universal Licensing System and Coast Guard Vessel Documentation Center.

Last reported at 2017-Oct-12 13:04 UTC. Time now 2017-Oct-22 23:08 UTC.
Position N 30°04' W 093°38'.
Warning: this ship's position is 10 days out of date.

Length 17 m; draft 2 m.

Type: Tug. MMSI: 367697020.

Date/timePositionNaut miles runAvg speedWind from/ knotsBaromVisibWave heightAir tempDewpointWater temp
2017-Oct-12 13:04N 30°04' W 093°38'1 5.4
2017-Oct-12 12:56N 30°04' W 093°37'4 6.7
2017-Oct-12 12:18N 30°04' W 093°32'2 6.8
2017-Oct-12 12:00N 30°04' W 093°29'3 6.9
2017-Oct-12 11:30N 30°04' W 093°26'3 6.9
2017-Oct-12 11:00N 30°04' W 093°22'3 6.1
2017-Oct-12 10:30N 30°06' W 093°19'1 2.8
2017-Oct-12 10:01N 30°05' W 093°18'1 2.4
2017-Oct-12 09:30N 30°05' W 093°16'0 0.0
2017-Oct-12 09:00N 30°05' W 093°16'1 2.1
2017-Oct-12 08:30N 30°04' W 093°16'3 5.9
2017-Oct-12 08:00N 30°01' W 093°14'3 6.3
2017-Oct-12 07:30N 29°59' W 093°12'3 6.6
2017-Oct-12 07:00N 29°56' W 093°09'42 5.8
2017-Oct-11 23:52N 29°51' W 092°22'2 5.9
2017-Oct-11 23:30N 29°50' W 092°19'3 5.8
2017-Oct-11 23:00N 29°49' W 092°17'3 6.0
2017-Oct-11 22:30N 29°48' W 092°14'2 4.4
2017-Oct-11 22:00N 29°47' W 092°11'3 5.5
2017-Oct-11 21:30N 29°47' W 092°08'3 6.5
2017-Oct-11 21:00N 29°48' W 092°05'1 0.0
2017-Oct-10 15:55N 29°49' W 092°04'2 5.4
2017-Oct-10 15:30N 29°48' W 092°06'3 5.3
2017-Oct-10 15:00N 29°47' W 092°09'4 3.8
2017-Oct-10 14:00N 29°47' W 092°13'3 5.0
2017-Oct-10 13:30N 29°48' W 092°16'3 4.5
2017-Oct-10 12:56N 29°50' W 092°18'40 4.9
2017-Oct-10 04:52N 29°56' W 093°03'2 5.1
2017-Oct-10 04:29N 29°56' W 093°06'2 5.0
2017-Oct-10 04:00N 29°56' W 093°09'2 4.8
2017-Oct-10 03:30N 29°57' W 093°11'3 5.1
2017-Oct-10 03:00N 29°59' W 093°13'2 4.8
2017-Oct-10 02:30N 30°01' W 093°14'2 3.0
2017-Oct-10 02:00N 30°02' W 093°16'2 4.9
2017-Oct-10 01:30N 30°05' W 093°17'2 3.4
2017-Oct-10 01:00N 30°06' W 093°18'0 0.3
2017-Oct-10 00:30N 30°06' W 093°18'0 0.0
2017-Oct-10 00:00N 30°06' W 093°18'0 0.0
2017-Oct-09 23:30N 30°06' W 093°18'0 0.0
2017-Oct-09 23:00N 30°06' W 093°18'0 0.0
2017-Oct-09 22:30N 30°06' W 093°18'0 0.0
2017-Oct-09 22:00N 30°06' W 093°18'0 0.0
2017-Oct-09 21:30N 30°06' W 093°18'0 0.0
2017-Oct-09 21:00N 30°06' W 093°18'0 0.0
2017-Oct-09 20:30N 30°06' W 093°18'0 0.0
2017-Oct-09 20:00N 30°06' W 093°18'0 0.0
2017-Oct-09 19:30N 30°06' W 093°18'0 0.0
2017-Oct-09 19:00N 30°06' W 093°18'0 0.0
2017-Oct-09 18:30N 30°06' W 093°18'0 0.0
2017-Oct-09 18:00N 30°06' W 093°18'0 0.0
2017-Oct-09 17:30N 30°06' W 093°18'0 0.0
2017-Oct-09 17:00N 30°06' W 093°18'0 0.0
2017-Oct-09 16:30N 30°06' W 093°18'0 0.0
2017-Oct-09 16:00N 30°06' W 093°18'0 0.0
2017-Oct-09 15:30N 30°06' W 093°18'0 0.0
2017-Oct-09 15:00N 30°06' W 093°18'0 0.0
2017-Oct-09 14:30N 30°06' W 093°18'0 0.0
2017-Oct-09 14:00N 30°06' W 093°18'1 1.5
2017-Oct-09 13:30N 30°06' W 093°19'3 5.5
2017-Oct-09 13:00N 30°04' W 093°21'3 5.4
2017-Oct-09 12:30N 30°04' W 093°24'3 5.5
2017-Oct-09 12:00N 30°04' W 093°27'2 4.9
2017-Oct-09 11:30N 30°04' W 093°30'  
2017-Oct-07 00:24N 30°04' W 093°32'2 4.7
2017-Oct-07 00:00N 30°04' W 093°30'2 4.6
2017-Oct-06 23:30N 30°04' W 093°27'2 4.8
2017-Oct-06 23:00N 30°04' W 093°24'2 4.8
2017-Oct-06 22:30N 30°04' W 093°21'2 4.1
2017-Oct-06 22:00N 30°05' W 093°20'2 4.2
2017-Oct-06 21:30N 30°03' W 093°20'3 5.2
2017-Oct-06 21:00N 30°00' W 093°20'3 5.2
2017-Oct-06 20:30N 29°58' W 093°20'3 5.3
2017-Oct-06 20:00N 29°55' W 093°20'3 5.5
2017-Oct-06 19:28N 29°52' W 093°21'1 0.1
2017-Oct-06 13:21N 29°53' W 093°21'2 5.5
2017-Oct-06 13:00N 29°55' W 093°20'3 5.4
2017-Oct-06 12:24N 29°58' W 093°20'3 5.6
2017-Oct-06 11:56N 30°01' W 093°20'2 5.5
2017-Oct-06 11:30N 30°03' W 093°20'2 4.2
2017-Oct-06 11:00N 30°05' W 093°20'2 4.8
2017-Oct-06 10:30N 30°04' W 093°22'0 0.1
2017-Oct-06 09:51N 30°04' W 093°22'1 3.7
2017-Oct-06 09:30N 30°04' W 093°21'1 2.6
2017-Oct-06 09:00N 30°05' W 093°20'2 2.5
2017-Oct-06 08:08N 30°05' W 093°17'0 1.8
2017-Oct-06 08:00N 30°05' W 093°17'1 2.4
2017-Oct-06 07:30N 30°04' W 093°16'3 3.4
2017-Oct-06 06:42N 30°02' W 093°14'3 4.4
2017-Oct-06 06:08N 29°59' W 093°13'1 4.9
2017-Oct-06 06:00N 29°59' W 093°12'2 4.8
2017-Oct-06 05:30N 29°57' W 093°10'46 4.4
2017-Oct-05 18:58N 29°50' W 092°18'3 3.8
2017-Oct-05 18:10N 29°48' W 092°15'1 4.8
2017-Oct-05 18:00N 29°48' W 092°15'2 4.2
2017-Oct-05 17:30N 29°47' W 092°12'0 0.3
2017-Oct-05 17:00N 29°47' W 092°12'7 4.5
2017-Oct-05 15:30N 29°48' W 092°05'69 4.3
2017-Oct-04 23:28N 29°32' W 090°47'3 6.2
2017-Oct-04 22:54N 29°34' W 090°44'1 2.3
2017-Oct-04 22:30N 29°34' W 090°43'3 5.0
2017-Oct-04 22:00N 29°37' W 090°42'2 5.0
2017-Oct-04 21:30N 29°36' W 090°40'3 5.1
2017-Oct-04 21:00N 29°35' W 090°37'2 4.6
2017-Oct-04 20:30N 29°34' W 090°34'2 4.8
2017-Oct-04 20:00N 29°34' W 090°32'  

Dump ship's entire track history